sensor_id;sensor_type;location;lat;lon;timestamp;temperature;humidity
78315;SHT31;68596;52.080;4.662;2023-04-01T00:01:30;12.44;80.40
78315;SHT31;68596;52.080;4.662;2023-04-01T00:04:15;12.44;80.42
78315;SHT31;68596;52.080;4.662;2023-04-01T00:06:59;12.46;80.25
78315;SHT31;68596;52.080;4.662;2023-04-01T00:09:44;12.29;80.72
78315;SHT31;68596;52.080;4.662;2023-04-01T00:12:28;12.22;80.97
78315;SHT31;68596;52.080;4.662;2023-04-01T00:15:13;12.19;81.10
78315;SHT31;68596;52.080;4.662;2023-04-01T00:17:57;12.25;80.87
78315;SHT31;68596;52.080;4.662;2023-04-01T00:20:47;12.30;80.69
78315;SHT31;68596;52.080;4.662;2023-04-01T00:23:31;12.26;80.58
78315;SHT31;68596;52.080;4.662;2023-04-01T00:26:16;12.19;80.80
78315;SHT31;68596;52.080;4.662;2023-04-01T00:29:02;12.16;80.94
78315;SHT31;68596;52.080;4.662;2023-04-01T00:31:46;12.15;81.07
78315;SHT31;68596;52.080;4.662;2023-04-01T00:34:31;12.16;80.83
78315;SHT31;68596;52.080;4.662;2023-04-01T00:37:15;12.20;80.86
78315;SHT31;68596;52.080;4.662;2023-04-01T00:39:59;12.15;80.93
78315;SHT31;68596;52.080;4.662;2023-04-01T00:42:43;12.23;80.70
78315;SHT31;68596;52.080;4.662;2023-04-01T00:48:25;12.09;80.99
78315;SHT31;68596;52.080;4.662;2023-04-01T00:51:28;12.03;81.43
78315;SHT31;68596;52.080;4.662;2023-04-01T00:54:16;12.08;81.06
78315;SHT31;68596;52.080;4.662;2023-04-01T00:57:08;12.05;81.10
78315;SHT31;68596;52.080;4.662;2023-04-01T00:59:54;12.05;81.15
78315;SHT31;68596;52.080;4.662;2023-04-01T01:02:41;12.03;81.15
78315;SHT31;68596;52.080;4.662;2023-04-01T01:05:44;11.98;81.21
78315;SHT31;68596;52.080;4.662;2023-04-01T01:12:07;11.96;81.38
78315;SHT31;68596;52.080;4.662;2023-04-01T01:18:12;11.96;81.24
78315;SHT31;68596;52.080;4.662;2023-04-01T01:25:00;12.08;80.93
78315;SHT31;68596;52.080;4.662;2023-04-01T01:27:42;12.09;80.75
78315;SHT31;68596;52.080;4.662;2023-04-01T01:30:43;12.16;80.41
78315;SHT31;68596;52.080;4.662;2023-04-01T01:33:37;12.08;80.78
78315;SHT31;68596;52.080;4.662;2023-04-01T01:36:30;12.03;80.75
78315;SHT31;68596;52.080;4.662;2023-04-01T01:39:17;12.02;80.72
78315;SHT31;68596;52.080;4.662;2023-04-01T01:42:06;11.99;80.86
78315;SHT31;68596;52.080;4.662;2023-04-01T01:44:53;11.98;80.76
78315;SHT31;68596;52.080;4.662;2023-04-01T01:47:41;12.00;81.06
78315;SHT31;68596;52.080;4.662;2023-04-01T01:50:28;11.92;80.99
78315;SHT31;68596;52.080;4.662;2023-04-01T01:53:13;11.89;81.07
78315;SHT31;68596;52.080;4.662;2023-04-01T01:55:57;11.89;81.28
78315;SHT31;68596;52.080;4.662;2023-04-01T01:58:45;11.98;80.83
78315;SHT31;68596;52.080;4.662;2023-04-01T02:01:35;12.05;80.74
78315;SHT31;68596;52.080;4.662;2023-04-01T02:04:22;12.06;80.52
78315;SHT31;68596;52.080;4.662;2023-04-01T02:07:18;11.95;80.84
78315;SHT31;68596;52.080;4.662;2023-04-01T02:10:04;11.98;81.02
78315;SHT31;68596;52.080;4.662;2023-04-01T02:12:50;11.96;81.00
78315;SHT31;68596;52.080;4.662;2023-04-01T02:15:41;11.92;81.02
78315;SHT31;68596;52.080;4.662;2023-04-01T02:18:28;11.88;81.35
78315;SHT31;68596;52.080;4.662;2023-04-01T02:21:15;11.93;81.16
78315;SHT31;68596;52.080;4.662;2023-04-01T02:24:08;11.95;81.25
78315;SHT31;68596;52.080;4.662;2023-04-01T02:26:53;11.98;80.94
78315;SHT31;68596;52.080;4.662;2023-04-01T02:29:37;11.96;81.14
78315;SHT31;68596;52.080;4.662;2023-04-01T02:32:22;11.99;80.99
78315;SHT31;68596;52.080;4.662;2023-04-01T02:35:09;12.08;80.71
78315;SHT31;68596;52.080;4.662;2023-04-01T02:37:54;12.08;80.89
78315;SHT31;68596;52.080;4.662;2023-04-01T02:40:46;12.03;81.23
78315;SHT31;68596;52.080;4.662;2023-04-01T02:43:30;12.05;80.81
78315;SHT31;68596;52.080;4.662;2023-04-01T02:46:14;12.12;80.55
78315;SHT31;68596;52.080;4.662;2023-04-01T02:48:58;12.15;80.65
78315;SHT31;68596;52.080;4.662;2023-04-01T02:51:43;12.13;80.49
78315;SHT31;68596;52.080;4.662;2023-04-01T02:54:27;12.15;80.65
78315;SHT31;68596;52.080;4.662;2023-04-01T02:57:11;12.16;80.42
78315;SHT31;68596;52.080;4.662;2023-04-01T02:59:55;12.16;80.68
78315;SHT31;68596;52.080;4.662;2023-04-01T03:02:39;12.15;80.69
78315;SHT31;68596;52.080;4.662;2023-04-01T03:05:24;12.16;80.74
78315;SHT31;68596;52.080;4.662;2023-04-01T03:08:08;12.20;80.51
78315;SHT31;68596;52.080;4.662;2023-04-01T03:10:52;12.25;80.56
78315;SHT31;68596;52.080;4.662;2023-04-01T03:13:36;12.29;80.99
78315;SHT31;68596;52.080;4.662;2023-04-01T03:16:21;12.18;81.19
78315;SHT31;68596;52.080;4.662;2023-04-01T03:19:06;12.18;80.74
78315;SHT31;68596;52.080;4.662;2023-04-01T03:21:53;12.20;80.70
78315;SHT31;68596;52.080;4.662;2023-04-01T03:24:37;12.25;80.85
78315;SHT31;68596;52.080;4.662;2023-04-01T03:27:21;12.29;80.44
78315;SHT31;68596;52.080;4.662;2023-04-01T03:30:06;12.36;80.31
78315;SHT31;68596;52.080;4.662;2023-04-01T03:32:52;12.37;80.02
78315;SHT31;68596;52.080;4.662;2023-04-01T03:35:36;12.41;79.81
78315;SHT31;68596;52.080;4.662;2023-04-01T03:38:21;12.43;79.87
78315;SHT31;68596;52.080;4.662;2023-04-01T03:41:05;12.39;80.43
78315;SHT31;68596;52.080;4.662;2023-04-01T03:43:50;12.33;80.47
78315;SHT31;68596;52.080;4.662;2023-04-01T03:46:35;12.33;80.17
78315;SHT31;68596;52.080;4.662;2023-04-01T03:49:19;12.36;80.14
78315;SHT31;68596;52.080;4.662;2023-04-01T03:52:03;12.40;79.83
78315;SHT31;68596;52.080;4.662;2023-04-01T03:54:47;12.40;79.76
78315;SHT31;68596;52.080;4.662;2023-04-01T03:57:31;12.43;79.56
78315;SHT31;68596;52.080;4.662;2023-04-01T04:00:16;12.44;79.67
78315;SHT31;68596;52.080;4.662;2023-04-01T04:03:00;12.37;79.99
78315;SHT31;68596;52.080;4.662;2023-04-01T04:05:48;12.39;80.13
78315;SHT31;68596;52.080;4.662;2023-04-01T04:08:33;12.40;79.89
78315;SHT31;68596;52.080;4.662;2023-04-01T04:11:18;12.40;79.89
78315;SHT31;68596;52.080;4.662;2023-04-01T04:14:02;12.40;80.05
78315;SHT31;68596;52.080;4.662;2023-04-01T04:16:46;12.39;79.98
78315;SHT31;68596;52.080;4.662;2023-04-01T04:19:34;12.39;79.83
78315;SHT31;68596;52.080;4.662;2023-04-01T04:22:18;12.41;79.71
78315;SHT31;68596;52.080;4.662;2023-04-01T04:25:02;12.41;79.53
78315;SHT31;68596;52.080;4.662;2023-04-01T04:27:47;12.40;79.71
78315;SHT31;68596;52.080;4.662;2023-04-01T04:30:31;12.41;79.50
78315;SHT31;68596;52.080;4.662;2023-04-01T04:33:15;12.40;79.56
78315;SHT31;68596;52.080;4.662;2023-04-01T04:36:00;12.36;79.47
78315;SHT31;68596;52.080;4.662;2023-04-01T04:38:44;12.36;79.64
78315;SHT31;68596;52.080;4.662;2023-04-01T04:41:28;12.34;79.56
78315;SHT31;68596;52.080;4.662;2023-04-01T04:44:12;12.34;79.52
78315;SHT31;68596;52.080;4.662;2023-04-01T04:46:56;12.32;79.62
78315;SHT31;68596;52.080;4.662;2023-04-01T04:49:41;12.32;79.64
78315;SHT31;68596;52.080;4.662;2023-04-01T04:52:24;12.32;79.63
78315;SHT31;68596;52.080;4.662;2023-04-01T04:55:09;12.26;79.65
78315;SHT31;68596;52.080;4.662;2023-04-01T04:57:53;12.23;79.76
78315;SHT31;68596;52.080;4.662;2023-04-01T05:00:37;12.20;79.74
78315;SHT31;68596;52.080;4.662;2023-04-01T05:03:22;12.22;79.90
78315;SHT31;68596;52.080;4.662;2023-04-01T05:06:08;12.23;79.64
78315;SHT31;68596;52.080;4.662;2023-04-01T05:08:52;12.23;79.65
78315;SHT31;68596;52.080;4.662;2023-04-01T05:11:36;12.22;79.71
78315;SHT31;68596;52.080;4.662;2023-04-01T05:14:20;12.15;79.91
78315;SHT31;68596;52.080;4.662;2023-04-01T05:17:09;12.13;80.01
78315;SHT31;68596;52.080;4.662;2023-04-01T05:19:53;12.13;80.31
78315;SHT31;68596;52.080;4.662;2023-04-01T05:22:37;12.09;80.22
78315;SHT31;68596;52.080;4.662;2023-04-01T05:25:25;12.10;80.33
78315;SHT31;68596;52.080;4.662;2023-04-01T05:28:09;12.08;80.42
78315;SHT31;68596;52.080;4.662;2023-04-01T05:30:53;12.12;80.48
78315;SHT31;68596;52.080;4.662;2023-04-01T05:33:37;12.09;80.18
78315;SHT31;68596;52.080;4.662;2023-04-01T05:36:22;12.16;79.99
78315;SHT31;68596;52.080;4.662;2023-04-01T05:39:07;12.15;79.78
78315;SHT31;68596;52.080;4.662;2023-04-01T05:41:52;12.16;79.87
78315;SHT31;68596;52.080;4.662;2023-04-01T05:44:36;12.13;79.88
78315;SHT31;68596;52.080;4.662;2023-04-01T05:47:22;12.09;79.92
78315;SHT31;68596;52.080;4.662;2023-04-01T05:50:07;12.13;79.92
78315;SHT31;68596;52.080;4.662;2023-04-01T05:52:52;12.12;79.89
78315;SHT31;68596;52.080;4.662;2023-04-01T05:55:36;12.10;79.94
78315;SHT31;68596;52.080;4.662;2023-04-01T05:58:20;12.13;79.74
78315;SHT31;68596;52.080;4.662;2023-04-01T06:01:07;12.19;79.84
78315;SHT31;68596;52.080;4.662;2023-04-01T06:03:52;12.16;79.76
78315;SHT31;68596;52.080;4.662;2023-04-01T06:06:36;12.18;79.84
78315;SHT31;68596;52.080;4.662;2023-04-01T06:09:29;12.12;80.04
78315;SHT31;68596;52.080;4.662;2023-04-01T06:15:35;12.08;80.16
78315;SHT31;68596;52.080;4.662;2023-04-01T06:21:48;12.15;79.78
78315;SHT31;68596;52.080;4.662;2023-04-01T06:28:06;12.25;79.58
78315;SHT31;68596;52.080;4.662;2023-04-01T06:31:10;12.19;79.81
78315;SHT31;68596;52.080;4.662;2023-04-01T06:46:00;12.22;79.44
78315;SHT31;68596;52.080;4.662;2023-04-01T06:58:22;12.12;80.01
78315;SHT31;68596;52.080;4.662;2023-04-01T07:01:16;12.12;79.83
78315;SHT31;68596;52.080;4.662;2023-04-01T07:07:04;12.22;79.74
78315;SHT31;68596;52.080;4.662;2023-04-01T07:09:53;12.22;79.60
78315;SHT31;68596;52.080;4.662;2023-04-01T07:12:45;12.20;79.86
78315;SHT31;68596;52.080;4.662;2023-04-01T07:15:54;12.23;79.35
78315;SHT31;68596;52.080;4.662;2023-04-01T07:21:55;12.30;79.44
78315;SHT31;68596;52.080;4.662;2023-04-01T07:24:44;12.25;79.75
78315;SHT31;68596;52.080;4.662;2023-04-01T07:27:29;12.23;79.80
78315;SHT31;68596;52.080;4.662;2023-04-01T07:30:21;12.22;79.73
78315;SHT31;68596;52.080;4.662;2023-04-01T07:33:16;12.23;79.88
78315;SHT31;68596;52.080;4.662;2023-04-01T07:36:21;12.22;80.04
78315;SHT31;68596;52.080;4.662;2023-04-01T07:45:19;12.33;79.57
78315;SHT31;68596;52.080;4.662;2023-04-01T07:57:02;12.25;79.49
78315;SHT31;68596;52.080;4.662;2023-04-01T07:59:57;12.28;79.49
78315;SHT31;68596;52.080;4.662;2023-04-01T08:09:27;12.26;79.66
78315;SHT31;68596;52.080;4.662;2023-04-01T08:15:22;12.30;79.73
78315;SHT31;68596;52.080;4.662;2023-04-01T08:21:17;12.49;79.36
78315;SHT31;68596;52.080;4.662;2023-04-01T08:24:42;12.49;79.29
78315;SHT31;68596;52.080;4.662;2023-04-01T08:27:36;12.39;79.14
78315;SHT31;68596;52.080;4.662;2023-04-01T08:30:24;12.36;79.34
78315;SHT31;68596;52.080;4.662;2023-04-01T08:36:10;12.39;79.17
78315;SHT31;68596;52.080;4.662;2023-04-01T08:39:07;12.46;79.36
78315;SHT31;68596;52.080;4.662;2023-04-01T08:42:04;12.49;79.13
78315;SHT31;68596;52.080;4.662;2023-04-01T08:45:17;12.54;79.04
78315;SHT31;68596;52.080;4.662;2023-04-01T08:48:25;12.61;78.77
78315;SHT31;68596;52.080;4.662;2023-04-01T08:54:44;12.63;78.80
78315;SHT31;68596;52.080;4.662;2023-04-01T08:57:57;12.67;78.79
78315;SHT31;68596;52.080;4.662;2023-04-01T09:01:09;12.53;79.31
78315;SHT31;68596;52.080;4.662;2023-04-01T09:07:04;12.51;79.09
78315;SHT31;68596;52.080;4.662;2023-04-01T09:25:17;12.76;78.78
78315;SHT31;68596;52.080;4.662;2023-04-01T09:28:20;12.73;78.70
78315;SHT31;68596;52.080;4.662;2023-04-01T09:40:31;12.63;79.25
78315;SHT31;68596;52.080;4.662;2023-04-01T09:46:23;12.70;79.33
78315;SHT31;68596;52.080;4.662;2023-04-01T10:14:40;13.00;78.27
78315;SHT31;68596;52.080;4.662;2023-04-01T10:26:52;13.00;78.71
78315;SHT31;68596;52.080;4.662;2023-04-01T10:42:28;12.91;78.61
78315;SHT31;68596;52.080;4.662;2023-04-01T10:51:40;12.94;78.99
78315;SHT31;68596;52.080;4.662;2023-04-01T11:13:33;13.28;78.41
78315;SHT31;68596;52.080;4.662;2023-04-01T11:41:37;13.48;78.17
78315;SHT31;68596;52.080;4.662;2023-04-01T11:44:26;13.49;77.85
78315;SHT31;68596;52.080;4.662;2023-04-01T11:51:12;13.55;77.56
78315;SHT31;68596;52.080;4.662;2023-04-01T11:57:06;13.56;78.41
78315;SHT31;68596;52.080;4.662;2023-04-01T12:06:45;13.65;78.27
78315;SHT31;68596;52.080;4.662;2023-04-01T12:12:46;13.70;77.25
78315;SHT31;68596;52.080;4.662;2023-04-01T12:25:16;13.96;77.48
78315;SHT31;68596;52.080;4.662;2023-04-01T12:40:31;14.27;77.29
78315;SHT31;68596;52.080;4.662;2023-04-01T12:46:25;14.23;77.86
78315;SHT31;68596;52.080;4.662;2023-04-01T12:52:14;14.13;77.49
78315;SHT31;68596;52.080;4.662;2023-04-01T12:55:33;14.02;77.60
78315;SHT31;68596;52.080;4.662;2023-04-01T12:58:53;13.97;77.79
78315;SHT31;68596;52.080;4.662;2023-04-01T13:18:25;13.73;78.87
78315;SHT31;68596;52.080;4.662;2023-04-01T13:29:59;13.73;78.61
78315;SHT31;68596;52.080;4.662;2023-04-01T13:33:04;13.70;78.84
78315;SHT31;68596;52.080;4.662;2023-04-01T13:44:49;13.79;78.58
78315;SHT31;68596;52.080;4.662;2023-04-01T13:53:59;13.90;78.62
78315;SHT31;68596;52.080;4.662;2023-04-01T14:06:29;13.82;78.10
78315;SHT31;68596;52.080;4.662;2023-04-01T14:12:30;13.76;79.14
78315;SHT31;68596;52.080;4.662;2023-04-01T14:15:54;13.75;78.74
78315;SHT31;68596;52.080;4.662;2023-04-01T14:22:44;13.70;78.82
78315;SHT31;68596;52.080;4.662;2023-04-01T14:41:48;13.82;79.31
78315;SHT31;68596;52.080;4.662;2023-04-01T14:47:58;13.75;78.63
78315;SHT31;68596;52.080;4.662;2023-04-01T14:50:50;13.73;78.91
78315;SHT31;68596;52.080;4.662;2023-04-01T14:53:41;13.70;79.17
78315;SHT31;68596;52.080;4.662;2023-04-01T14:56:43;13.70;79.33
78315;SHT31;68596;52.080;4.662;2023-04-01T14:59:29;13.73;79.57
78315;SHT31;68596;52.080;4.662;2023-04-01T15:08:33;13.86;79.04
78315;SHT31;68596;52.080;4.662;2023-04-01T15:20:43;13.69;79.16
78315;SHT31;68596;52.080;4.662;2023-04-01T15:30:14;13.65;79.40
78315;SHT31;68596;52.080;4.662;2023-04-01T15:36:28;13.55;79.39
78315;SHT31;68596;52.080;4.662;2023-04-01T15:39:23;13.51;79.40
78315;SHT31;68596;52.080;4.662;2023-04-01T15:42:33;13.48;79.36
78315;SHT31;68596;52.080;4.662;2023-04-01T15:45:49;13.49;79.42
78315;SHT31;68596;52.080;4.662;2023-04-01T15:49:03;13.48;79.43
78315;SHT31;68596;52.080;4.662;2023-04-01T15:51:58;13.49;79.46
78315;SHT31;68596;52.080;4.662;2023-04-01T15:54:59;13.49;79.29
78315;SHT31;68596;52.080;4.662;2023-04-01T16:01:14;13.49;79.30
78315;SHT31;68596;52.080;4.662;2023-04-01T16:07:37;13.42;79.28
78315;SHT31;68596;52.080;4.662;2023-04-01T16:22:45;13.22;79.79
78315;SHT31;68596;52.080;4.662;2023-04-01T16:25:40;13.25;79.93
78315;SHT31;68596;52.080;4.662;2023-04-01T16:28:34;13.25;79.80
78315;SHT31;68596;52.080;4.662;2023-04-01T16:34:34;13.24;79.68
78315;SHT31;68596;52.080;4.662;2023-04-01T16:37:33;13.21;79.70
78315;SHT31;68596;52.080;4.662;2023-04-01T16:43:44;13.22;79.83
78315;SHT31;68596;52.080;4.662;2023-04-01T16:46:39;13.21;79.64
78315;SHT31;68596;52.080;4.662;2023-04-01T16:49:32;13.21;79.50
78315;SHT31;68596;52.080;4.662;2023-04-01T16:52:36;13.19;79.18
78315;SHT31;68596;52.080;4.662;2023-04-01T16:55:34;13.16;79.46
78315;SHT31;68596;52.080;4.662;2023-04-01T16:59:01;13.14;79.22
78315;SHT31;68596;52.080;4.662;2023-04-01T17:01:55;13.10;79.55
78315;SHT31;68596;52.080;4.662;2023-04-01T17:07:46;13.08;79.17
78315;SHT31;68596;52.080;4.662;2023-04-01T17:10:37;13.02;79.30
78315;SHT31;68596;52.080;4.662;2023-04-01T17:22:17;12.98;79.20
78315;SHT31;68596;52.080;4.662;2023-04-01T17:31:37;12.87;79.07
78315;SHT31;68596;52.080;4.662;2023-04-01T17:37:38;12.74;79.56
78315;SHT31;68596;52.080;4.662;2023-04-01T17:52:32;12.43;79.53
78315;SHT31;68596;52.080;4.662;2023-04-01T17:58:18;12.41;80.06
78315;SHT31;68596;52.080;4.662;2023-04-01T18:01:33;12.43;79.87
78315;SHT31;68596;52.080;4.662;2023-04-01T18:11:00;12.49;79.57
78315;SHT31;68596;52.080;4.662;2023-04-01T18:19:57;12.43;79.11
78315;SHT31;68596;52.080;4.662;2023-04-01T18:23:12;12.43;79.34
78315;SHT31;68596;52.080;4.662;2023-04-01T18:26:10;12.39;78.90
78315;SHT31;68596;52.080;4.662;2023-04-01T18:41:14;12.16;78.73
78315;SHT31;68596;52.080;4.662;2023-04-01T18:52:37;12.15;78.61
78315;SHT31;68596;52.080;4.662;2023-04-01T18:58:58;12.06;79.13
78315;SHT31;68596;52.080;4.662;2023-04-01T19:02:03;12.06;78.95
78315;SHT31;68596;52.080;4.662;2023-04-01T19:05:23;11.99;78.76
78315;SHT31;68596;52.080;4.662;2023-04-01T19:30:02;11.54;78.72
78315;SHT31;68596;52.080;4.662;2023-04-01T19:36:03;11.50;78.95
78315;SHT31;68596;52.080;4.662;2023-04-01T19:39:07;11.55;79.37
78315;SHT31;68596;52.080;4.662;2023-04-01T19:45:12;11.64;78.31
78315;SHT31;68596;52.080;4.662;2023-04-01T19:51:12;11.42;79.12
78315;SHT31;68596;52.080;4.662;2023-04-01T19:57:38;11.21;79.21
78315;SHT31;68596;52.080;4.662;2023-04-01T20:00:29;11.14;79.48
78315;SHT31;68596;52.080;4.662;2023-04-01T20:06:37;11.18;78.57
78315;SHT31;68596;52.080;4.662;2023-04-01T20:09:43;11.14;78.37
78315;SHT31;68596;52.080;4.662;2023-04-01T20:15:58;11.14;77.82
78315;SHT31;68596;52.080;4.662;2023-04-01T20:18:58;11.14;78.70
78315;SHT31;68596;52.080;4.662;2023-04-01T20:21:47;11.18;78.70
78315;SHT31;68596;52.080;4.662;2023-04-01T20:24:46;11.21;78.78
78315;SHT31;68596;52.080;4.662;2023-04-01T20:27:36;11.23;78.56
78315;SHT31;68596;52.080;4.662;2023-04-01T20:36:39;10.89;78.31
78315;SHT31;68596;52.080;4.662;2023-04-01T20:45:58;10.81;78.41
78315;SHT31;68596;52.080;4.662;2023-04-01T20:52:32;10.81;78.19
78315;SHT31;68596;52.080;4.662;2023-04-01T21:01:40;10.74;77.91
78315;SHT31;68596;52.080;4.662;2023-04-01T21:10:35;10.64;77.62
78315;SHT31;68596;52.080;4.662;2023-04-01T21:38:41;10.43;77.45
78315;SHT31;68596;52.080;4.662;2023-04-01T21:42:01;10.39;77.70
78315;SHT31;68596;52.080;4.662;2023-04-01T21:44:55;10.42;77.88
78315;SHT31;68596;52.080;4.662;2023-04-01T21:57:07;10.23;77.76
78315;SHT31;68596;52.080;4.662;2023-04-01T22:12:13;9.90;77.90
78315;SHT31;68596;52.080;4.662;2023-04-01T22:18:13;9.85;78.09
78315;SHT31;68596;52.080;4.662;2023-04-01T22:21:42;9.80;78.02
78315;SHT31;68596;52.080;4.662;2023-04-01T22:24:43;9.71;77.66
78315;SHT31;68596;52.080;4.662;2023-04-01T22:27:41;9.74;78.29
78315;SHT31;68596;52.080;4.662;2023-04-01T22:30:39;9.73;78.02
78315;SHT31;68596;52.080;4.662;2023-04-01T22:33:46;9.64;78.21
78315;SHT31;68596;52.080;4.662;2023-04-01T22:39:23;9.68;78.27
78315;SHT31;68596;52.080;4.662;2023-04-01T22:42:41;9.74;78.36
78315;SHT31;68596;52.080;4.662;2023-04-01T22:45:48;9.73;78.39
78315;SHT31;68596;52.080;4.662;2023-04-01T22:54:54;9.97;77.77
78315;SHT31;68596;52.080;4.662;2023-04-01T23:00:58;9.91;77.41
78315;SHT31;68596;52.080;4.662;2023-04-01T23:03:48;9.88;77.75
78315;SHT31;68596;52.080;4.662;2023-04-01T23:06:38;9.87;77.30
78315;SHT31;68596;52.080;4.662;2023-04-01T23:09:35;9.78;77.52
78315;SHT31;68596;52.080;4.662;2023-04-01T23:12:21;9.71;77.67
78315;SHT31;68596;52.080;4.662;2023-04-01T23:15:13;9.68;77.95
78315;SHT31;68596;52.080;4.662;2023-04-01T23:27:03;9.87;77.75
78315;SHT31;68596;52.080;4.662;2023-04-01T23:29:49;9.91;77.53
78315;SHT31;68596;52.080;4.662;2023-04-01T23:32:34;9.88;77.25
78315;SHT31;68596;52.080;4.662;2023-04-01T23:35:18;9.84;77.23
78315;SHT31;68596;52.080;4.662;2023-04-01T23:38:03;9.75;77.35
78315;SHT31;68596;52.080;4.662;2023-04-01T23:40:50;9.61;77.77
78315;SHT31;68596;52.080;4.662;2023-04-01T23:43:41;9.52;77.79
78315;SHT31;68596;52.080;4.662;2023-04-01T23:46:30;9.61;77.79
78315;SHT31;68596;52.080;4.662;2023-04-01T23:49:22;9.67;77.57
78315;SHT31;68596;52.080;4.662;2023-04-01T23:52:27;9.67;77.49
78315;SHT31;68596;52.080;4.662;2023-04-01T23:55:22;9.71;77.16
